sensor_id;sensor_type;location;lat;lon;timestamp;pressure;altitude;pressure_sealevel;temperature;humidity
65280;BME280;51878;55.748;48.742;2023-08-31T00:01:03;98858.00;;;10.24;100.00
65280;BME280;51878;55.748;48.742;2023-08-31T00:06:08;98870.06;;;10.21;100.00
65280;BME280;51878;55.748;48.742;2023-08-31T00:11:10;98829.50;;;10.00;100.00
65280;BME280;51878;55.748;48.742;2023-08-31T00:16:12;98888.06;;;10.29;100.00
65280;BME280;51878;55.748;48.742;2023-08-31T00:21:15;98843.00;;;9.93;100.00
65280;BME280;51878;55.748;48.742;2023-08-31T00:26:17;98906.00;;;10.30;100.00
65280;BME280;51878;55.748;48.742;2023-08-31T00:31:19;98842.94;;;9.86;100.00
65280;BME280;51878;55.748;48.742;2023-08-31T00:36:23;98929.97;;;10.33;100.00
65280;BME280;51878;55.748;48.742;2023-08-31T00:41:25;98889.72;;;10.02;100.00
65280;BME280;51878;55.748;48.742;2023-08-31T00:46:27;98926.56;;;10.24;100.00
65280;BME280;51878;55.748;48.742;2023-08-31T00:51:31;98929.03;;;10.19;100.00
65280;BME280;51878;55.748;48.742;2023-08-31T00:56:34;98919.16;;;10.11;100.00
65280;BME280;51878;55.748;48.742;2023-08-31T01:01:39;98946.75;;;10.22;100.00
65280;BME280;51878;55.748;48.742;2023-08-31T01:17:07;98913.81;;;9.90;100.00
65280;BME280;51878;55.748;48.742;2023-08-31T01:22:29;98946.59;;;10.02;100.00
65280;BME280;51878;55.748;48.742;2023-08-31T01:27:33;98926.44;;;9.83;100.00
65280;BME280;51878;55.748;48.742;2023-08-31T01:32:36;98934.59;;;9.89;100.00
65280;BME280;51878;55.748;48.742;2023-08-31T01:37:51;98898.53;;;9.61;100.00
65280;BME280;51878;55.748;48.742;2023-08-31T01:42:55;98929.06;;;9.76;100.00
65280;BME280;51878;55.748;48.742;2023-08-31T01:47:57;98903.69;;;9.56;100.00
65280;BME280;51878;55.748;48.742;2023-08-31T01:52:59;98947.44;;;9.81;100.00
65280;BME280;51878;55.748;48.742;2023-08-31T01:58:02;98939.41;;;9.66;100.00
65280;BME280;51878;55.748;48.742;2023-08-31T02:03:05;98962.59;;;9.75;100.00
65280;BME280;51878;55.748;48.742;2023-08-31T02:08:08;98942.88;;;9.60;100.00
65280;BME280;51878;55.748;48.742;2023-08-31T02:13:10;98942.88;;;9.60;100.00
65280;BME280;51878;55.748;48.742;2023-08-31T02:18:13;98967.38;;;9.73;100.00
65280;BME280;51878;55.748;48.742;2023-08-31T02:23:15;98920.56;;;9.36;100.00
65280;BME280;51878;55.748;48.742;2023-08-31T02:28:17;98975.09;;;9.76;100.00
65280;BME280;51878;55.748;48.742;2023-08-31T02:33:21;98977.69;;;9.84;100.00
65280;BME280;51878;55.748;48.742;2023-08-31T02:38:23;98918.81;;;9.50;100.00
65280;BME280;51878;55.748;48.742;2023-08-31T02:43:25;98946.72;;;9.72;100.00
65280;BME280;51878;55.748;48.742;2023-08-31T02:48:28;98986.41;;;10.01;100.00
65280;BME280;51878;55.748;48.742;2023-08-31T02:53:32;98954.16;;;9.85;100.00
65280;BME280;51878;55.748;48.742;2023-08-31T02:58:34;98970.72;;;9.97;100.00
65280;BME280;51878;55.748;48.742;2023-08-31T03:03:39;98933.06;;;9.80;100.00
65280;BME280;51878;55.748;48.742;2023-08-31T03:08:41;99007.97;;;10.38;100.00
65280;BME280;51878;55.748;48.742;2023-08-31T03:13:44;98972.81;;;10.23;100.00
65280;BME280;51878;55.748;48.742;2023-08-31T03:18:46;99032.38;;;10.66;100.00
65280;BME280;51878;55.748;48.742;2023-08-31T03:23:48;98953.72;;;10.31;100.00
65280;BME280;51878;55.748;48.742;2023-08-31T03:28:50;99008.09;;;10.86;100.00
65280;BME280;51878;55.748;48.742;2023-08-31T03:33:52;99022.44;;;11.14;100.00
65280;BME280;51878;55.748;48.742;2023-08-31T03:38:55;98991.94;;;11.06;100.00
65280;BME280;51878;55.748;48.742;2023-08-31T03:43:57;99029.22;;;11.32;100.00
65280;BME280;51878;55.748;48.742;2023-08-31T03:49:01;98975.72;;;11.19;100.00
65280;BME280;51878;55.748;48.742;2023-08-31T03:54:04;99029.31;;;11.58;100.00
65280;BME280;51878;55.748;48.742;2023-08-31T03:59:06;99004.06;;;11.58;100.00
65280;BME280;51878;55.748;48.742;2023-08-31T04:04:08;99004.94;;;11.78;100.00
65280;BME280;51878;55.748;48.742;2023-08-31T04:09:11;99004.75;;;11.87;100.00
65280;BME280;51878;55.748;48.742;2023-08-31T04:14:13;98981.56;;;11.84;100.00
65280;BME280;51878;55.748;48.742;2023-08-31T04:19:16;99028.22;;;12.21;100.00
65280;BME280;51878;55.748;48.742;2023-08-31T04:24:19;99021.13;;;12.33;100.00
65280;BME280;51878;55.748;48.742;2023-08-31T04:29:21;98991.22;;;12.27;100.00
65280;BME280;51878;55.748;48.742;2023-08-31T04:34:23;99037.22;;;12.75;100.00
65280;BME280;51878;55.748;48.742;2023-08-31T04:39:25;99030.50;;;12.91;100.00
65280;BME280;51878;55.748;48.742;2023-08-31T04:44:28;99018.53;;;13.05;100.00
65280;BME280;51878;55.748;48.742;2023-08-31T04:49:31;98991.88;;;13.20;100.00
65280;BME280;51878;55.748;48.742;2023-08-31T04:54:33;98988.03;;;13.48;100.00
65280;BME280;51878;55.748;48.742;2023-08-31T04:59:35;99008.22;;;13.79;100.00
65280;BME280;51878;55.748;48.742;2023-08-31T05:04:37;99042.09;;;14.21;100.00
65280;BME280;51878;55.748;48.742;2023-08-31T05:09:43;99025.22;;;14.38;100.00
65280;BME280;51878;55.748;48.742;2023-08-31T05:14:45;98985.81;;;14.34;100.00
65280;BME280;51878;55.748;48.742;2023-08-31T05:19:47;98998.41;;;14.60;100.00
65280;BME280;51878;55.748;48.742;2023-08-31T05:24:49;99027.56;;;15.03;100.00
65280;BME280;51878;55.748;48.742;2023-08-31T05:29:52;98993.91;;;14.91;100.00
65280;BME280;51878;55.748;48.742;2023-08-31T05:34:54;98991.50;;;15.19;100.00
65280;BME280;51878;55.748;48.742;2023-08-31T05:39:56;99042.13;;;15.70;100.00
65280;BME280;51878;55.748;48.742;2023-08-31T05:44:58;99031.69;;;15.98;100.00
65280;BME280;51878;55.748;48.742;2023-08-31T05:50:01;99021.03;;;16.08;97.87
65280;BME280;51878;55.748;48.742;2023-08-31T05:55:04;98963.63;;;15.78;95.33
65280;BME280;51878;55.748;48.742;2023-08-31T06:00:09;99011.03;;;16.02;94.00
65280;BME280;51878;55.748;48.742;2023-08-31T06:05:11;99038.19;;;16.27;92.40
65280;BME280;51878;55.748;48.742;2023-08-31T06:10:22;98998.56;;;16.06;93.89
65280;BME280;51878;55.748;48.742;2023-08-31T06:15:25;99027.91;;;16.64;96.64
65280;BME280;51878;55.748;48.742;2023-08-31T06:20:27;99023.56;;;16.99;92.36
65280;BME280;51878;55.748;48.742;2023-08-31T06:25:29;99014.88;;;17.13;91.48
65280;BME280;51878;55.748;48.742;2023-08-31T06:30:31;99021.38;;;17.88;90.54
65280;BME280;51878;55.748;48.742;2023-08-31T06:35:34;98974.69;;;18.34;85.40
65280;BME280;51878;55.748;48.742;2023-08-31T06:40:36;99016.09;;;19.17;69.54
65280;BME280;51878;55.748;48.742;2023-08-31T06:45:38;99014.13;;;19.78;63.70
65280;BME280;51878;55.748;48.742;2023-08-31T06:50:42;99010.41;;;20.17;55.24
65280;BME280;51878;55.748;48.742;2023-08-31T06:55:44;99007.72;;;20.54;53.68
65280;BME280;51878;55.748;48.742;2023-08-31T07:00:46;99006.78;;;20.71;51.22
65280;BME280;51878;55.748;48.742;2023-08-31T07:05:49;98967.19;;;20.87;49.43
65280;BME280;51878;55.748;48.742;2023-08-31T07:10:51;99006.28;;;21.26;46.88
65280;BME280;51878;55.748;48.742;2023-08-31T07:15:53;98983.66;;;21.24;45.58
65280;BME280;51878;55.748;48.742;2023-08-31T07:20:56;99002.66;;;21.69;45.92
65280;BME280;51878;55.748;48.742;2023-08-31T07:25:58;99013.72;;;21.79;44.30
65280;BME280;51878;55.748;48.742;2023-08-31T07:31:05;98969.59;;;21.94;44.70
65280;BME280;51878;55.748;48.742;2023-08-31T07:36:08;99009.38;;;22.08;42.71
65280;BME280;51878;55.748;48.742;2023-08-31T07:41:11;98980.16;;;22.38;42.82
65280;BME280;51878;55.748;48.742;2023-08-31T07:46:13;98964.97;;;22.31;41.94
65280;BME280;51878;55.748;48.742;2023-08-31T07:51:16;99005.59;;;22.76;41.92
65280;BME280;51878;55.748;48.742;2023-08-31T07:56:18;98993.16;;;22.63;40.89
65280;BME280;51878;55.748;48.742;2023-08-31T08:01:20;98978.50;;;22.78;40.01
65280;BME280;51878;55.748;48.742;2023-08-31T08:06:23;98975.69;;;22.88;39.38
65280;BME280;51878;55.748;48.742;2023-08-31T08:11:25;98994.22;;;23.14;38.93
65280;BME280;51878;55.748;48.742;2023-08-31T08:16:27;99005.66;;;23.62;38.13
65280;BME280;51878;55.748;48.742;2023-08-31T08:21:29;98969.13;;;23.60;37.89
65280;BME280;51878;55.748;48.742;2023-08-31T08:26:31;99019.00;;;24.09;37.15
65280;BME280;51878;55.748;48.742;2023-08-31T08:31:34;99015.84;;;24.26;37.53
65280;BME280;51878;55.748;48.742;2023-08-31T08:36:36;99014.25;;;24.60;37.32
65280;BME280;51878;55.748;48.742;2023-08-31T08:41:39;98959.59;;;24.26;36.64
65280;BME280;51878;55.748;48.742;2023-08-31T08:46:42;98979.13;;;24.45;36.45
65280;BME280;51878;55.748;48.742;2023-08-31T08:51:48;98936.88;;;24.63;35.35
65280;BME280;51878;55.748;48.742;2023-08-31T08:56:52;98989.13;;;25.33;35.50
65280;BME280;51878;55.748;48.742;2023-08-31T09:01:55;98996.41;;;25.29;35.61
65280;BME280;51878;55.748;48.742;2023-08-31T09:06:57;98952.50;;;25.55;35.01
65280;BME280;51878;55.748;48.742;2023-08-31T09:12:08;98985.94;;;25.88;33.59
65280;BME280;51878;55.748;48.742;2023-08-31T09:17:10;98990.91;;;26.10;34.31
65280;BME280;51878;55.748;48.742;2023-08-31T09:22:13;98994.16;;;26.17;33.40
65280;BME280;51878;55.748;48.742;2023-08-31T09:27:15;98958.25;;;26.02;33.37
65280;BME280;51878;55.748;48.742;2023-08-31T09:32:18;98961.22;;;26.76;31.71
65280;BME280;51878;55.748;48.742;2023-08-31T09:37:20;98992.94;;;27.36;31.40
65280;BME280;51878;55.748;48.742;2023-08-31T09:42:36;99003.28;;;27.63;30.88
65280;BME280;51878;55.748;48.742;2023-08-31T09:47:39;98980.47;;;27.61;31.74
65280;BME280;51878;55.748;48.742;2023-08-31T09:52:42;98958.44;;;28.01;29.65
65280;BME280;51878;55.748;48.742;2023-08-31T09:57:48;98972.38;;;28.60;29.81
65280;BME280;51878;55.748;48.742;2023-08-31T10:02:50;98976.25;;;28.14;30.48
65280;BME280;51878;55.748;48.742;2023-08-31T10:07:54;99006.03;;;28.05;29.60
65280;BME280;51878;55.748;48.742;2023-08-31T10:12:58;98989.56;;;28.17;30.58
65280;BME280;51878;55.748;48.742;2023-08-31T10:18:03;98951.81;;;28.33;29.01
65280;BME280;51878;55.748;48.742;2023-08-31T10:23:06;98960.31;;;29.04;28.74
65280;BME280;51878;55.748;48.742;2023-08-31T10:28:17;98989.66;;;29.24;28.14
65280;BME280;51878;55.748;48.742;2023-08-31T10:33:20;99008.03;;;28.27;29.17
65280;BME280;51878;55.748;48.742;2023-08-31T10:38:24;99002.94;;;28.65;29.64
65280;BME280;51878;55.748;48.742;2023-08-31T10:43:27;98959.19;;;29.54;27.80
65280;BME280;51878;55.748;48.742;2023-08-31T10:54:20;98982.34;;;30.21;26.33
65280;BME280;51878;55.748;48.742;2023-08-31T10:59:24;98994.47;;;31.03;24.23
65280;BME280;51878;55.748;48.742;2023-08-31T11:04:27;98968.13;;;32.02;24.59
65280;BME280;51878;55.748;48.742;2023-08-31T11:09:30;98954.38;;;32.43;23.61
65280;BME280;51878;55.748;48.742;2023-08-31T11:14:33;98983.09;;;31.00;24.70
65280;BME280;51878;55.748;48.742;2023-08-31T11:19:35;98985.22;;;31.50;23.92
65280;BME280;51878;55.748;48.742;2023-08-31T11:24:38;99007.81;;;32.13;23.04
65280;BME280;51878;55.748;48.742;2023-08-31T11:29:43;99009.94;;;31.09;24.01
65280;BME280;51878;55.748;48.742;2023-08-31T11:34:46;98997.00;;;28.89;26.81
65280;BME280;51878;55.748;48.742;2023-08-31T11:39:52;98950.34;;;28.81;26.84
65280;BME280;51878;55.748;48.742;2023-08-31T11:44:55;98953.06;;;30.10;25.55
65280;BME280;51878;55.748;48.742;2023-08-31T11:49:59;98922.34;;;29.52;25.52
65280;BME280;51878;55.748;48.742;2023-08-31T11:55:02;98985.25;;;28.11;26.49
65280;BME280;51878;55.748;48.742;2023-08-31T12:00:05;98902.81;;;27.04;28.41
65280;BME280;51878;55.748;48.742;2023-08-31T12:05:09;98940.16;;;28.31;27.34
65280;BME280;51878;55.748;48.742;2023-08-31T12:10:14;98969.41;;;29.19;26.62
65280;BME280;51878;55.748;48.742;2023-08-31T12:15:16;98970.00;;;29.07;26.24
65280;BME280;51878;55.748;48.742;2023-08-31T12:20:24;98969.47;;;29.85;25.36
65280;BME280;51878;55.748;48.742;2023-08-31T12:25:26;98971.50;;;30.54;24.77
65280;BME280;51878;55.748;48.742;2023-08-31T12:30:29;98934.59;;;30.69;23.99
65280;BME280;51878;55.748;48.742;2023-08-31T12:35:31;98956.84;;;30.40;24.88
65280;BME280;51878;55.748;48.742;2023-08-31T12:40:34;98926.13;;;30.96;24.39
65280;BME280;51878;55.748;48.742;2023-08-31T12:45:36;98977.81;;;31.84;23.43
65280;BME280;51878;55.748;48.742;2023-08-31T12:50:38;98942.59;;;31.65;24.01
65280;BME280;51878;55.748;48.742;2023-08-31T12:55:41;98942.53;;;32.04;22.86
65280;BME280;51878;55.748;48.742;2023-08-31T13:00:43;98952.44;;;32.01;23.13
65280;BME280;51878;55.748;48.742;2023-08-31T13:05:45;98879.97;;;31.61;23.25
65280;BME280;51878;55.748;48.742;2023-08-31T13:10:54;98972.31;;;33.17;22.66
65280;BME280;51878;55.748;48.742;2023-08-31T13:15:56;98981.22;;;34.05;21.72
65280;BME280;51878;55.748;48.742;2023-08-31T13:21:00;98918.69;;;33.34;21.60
65280;BME280;51878;55.748;48.742;2023-08-31T13:26:02;98958.63;;;33.52;22.01
65280;BME280;51878;55.748;48.742;2023-08-31T13:31:05;98991.09;;;32.38;22.64
65280;BME280;51878;55.748;48.742;2023-08-31T13:36:08;98960.72;;;30.91;24.96
65280;BME280;51878;55.748;48.742;2023-08-31T13:41:11;98883.75;;;29.54;24.98
65280;BME280;51878;55.748;48.742;2023-08-31T13:46:13;98966.69;;;30.20;25.34
65280;BME280;51878;55.748;48.742;2023-08-31T13:51:15;98992.00;;;30.84;25.38
65280;BME280;51878;55.748;48.742;2023-08-31T13:56:17;98966.38;;;30.65;25.15
65280;BME280;51878;55.748;48.742;2023-08-31T14:01:20;98959.50;;;31.18;24.50
65280;BME280;51878;55.748;48.742;2023-08-31T14:06:22;99003.38;;;31.82;24.46
65280;BME280;51878;55.748;48.742;2023-08-31T14:11:24;98960.53;;;31.05;25.07
65280;BME280;51878;55.748;48.742;2023-08-31T14:16:27;98967.53;;;30.46;25.72
65280;BME280;51878;55.748;48.742;2023-08-31T14:21:29;98999.75;;;29.92;26.36
65280;BME280;51878;55.748;48.742;2023-08-31T14:26:31;99013.59;;;29.17;27.10
65280;BME280;51878;55.748;48.742;2023-08-31T14:31:34;98948.59;;;28.94;27.17
65280;BME280;51878;55.748;48.742;2023-08-31T14:36:36;98925.47;;;29.33;26.67
65280;BME280;51878;55.748;48.742;2023-08-31T14:41:38;98968.59;;;29.67;26.53
65280;BME280;51878;55.748;48.742;2023-08-31T14:46:41;98997.91;;;29.78;26.68
65280;BME280;51878;55.748;48.742;2023-08-31T14:51:43;99001.09;;;29.54;26.76
65280;BME280;51878;55.748;48.742;2023-08-31T14:56:46;99008.63;;;28.82;27.89
65280;BME280;51878;55.748;48.742;2023-08-31T15:01:48;98951.16;;;27.64;29.41
65280;BME280;51878;55.748;48.742;2023-08-31T15:06:55;99017.31;;;27.44;30.28
65280;BME280;51878;55.748;48.742;2023-08-31T15:11:58;99022.16;;;27.38;30.03
65280;BME280;51878;55.748;48.742;2023-08-31T15:17:00;99022.00;;;26.83;31.17
65280;BME280;51878;55.748;48.742;2023-08-31T15:22:03;99019.16;;;26.17;32.10
65280;BME280;51878;55.748;48.742;2023-08-31T15:27:08;99028.41;;;25.16;33.70
65280;BME280;51878;55.748;48.742;2023-08-31T15:32:11;99035.72;;;24.39;34.96
65280;BME280;51878;55.748;48.742;2023-08-31T15:37:13;99021.31;;;23.22;36.67
65280;BME280;51878;55.748;48.742;2023-08-31T15:42:16;98991.41;;;21.96;38.13
65280;BME280;51878;55.748;48.742;2023-08-31T15:47:20;99018.63;;;21.14;40.00
65280;BME280;51878;55.748;48.742;2023-08-31T15:52:23;99041.78;;;20.43;41.33
65280;BME280;51878;55.748;48.742;2023-08-31T15:57:25;99003.75;;;19.41;43.46
65280;BME280;51878;55.748;48.742;2023-08-31T16:02:27;99045.28;;;19.01;46.35
65280;BME280;51878;55.748;48.742;2023-08-31T16:07:29;99057.66;;;18.53;47.74
65280;BME280;51878;55.748;48.742;2023-08-31T16:12:32;99053.25;;;18.06;50.74
65280;BME280;51878;55.748;48.742;2023-08-31T16:17:34;99033.19;;;17.65;52.62
65280;BME280;51878;55.748;48.742;2023-08-31T16:22:37;99005.78;;;17.25;54.13
65280;BME280;51878;55.748;48.742;2023-08-31T16:27:40;99051.16;;;17.32;54.73
65280;BME280;51878;55.748;48.742;2023-08-31T16:32:42;99042.50;;;17.12;56.89
65280;BME280;51878;55.748;48.742;2023-08-31T16:37:45;99005.34;;;16.81;56.67
65280;BME280;51878;55.748;48.742;2023-08-31T16:42:49;99031.41;;;16.83;57.40
65280;BME280;51878;55.748;48.742;2023-08-31T16:47:52;99004.59;;;16.50;58.80
65280;BME280;51878;55.748;48.742;2023-08-31T16:52:54;99014.00;;;16.54;59.86
65280;BME280;51878;55.748;48.742;2023-08-31T16:57:57;98954.44;;;16.02;60.71
65280;BME280;51878;55.748;48.742;2023-08-31T17:03:00;99036.94;;;16.41;61.11
65280;BME280;51878;55.748;48.742;2023-08-31T17:08:03;99060.63;;;16.47;61.76
65280;BME280;51878;55.748;48.742;2023-08-31T17:13:05;99022.94;;;16.07;63.12
65280;BME280;51878;55.748;48.742;2023-08-31T17:18:08;99032.22;;;16.18;63.15
65280;BME280;51878;55.748;48.742;2023-08-31T17:23:10;99020.84;;;15.91;65.44
65280;BME280;51878;55.748;48.742;2023-08-31T17:28:12;99064.31;;;16.11;66.39
65280;BME280;51878;55.748;48.742;2023-08-31T17:33:15;99063.22;;;16.00;66.80
65280;BME280;51878;55.748;48.742;2023-08-31T17:38:17;99059.13;;;15.91;69.81
65280;BME280;51878;55.748;48.742;2023-08-31T17:43:19;99033.13;;;15.70;70.02
65280;BME280;51878;55.748;48.742;2023-08-31T17:48:23;99073.72;;;15.85;69.99
65280;BME280;51878;55.748;48.742;2023-08-31T17:53:25;99025.38;;;15.48;72.08
65280;BME280;51878;55.748;48.742;2023-08-31T17:58:27;99066.75;;;15.70;73.19
65280;BME280;51878;55.748;48.742;2023-08-31T18:03:30;98946.22;;;14.93;76.13
65280;BME280;51878;55.748;48.742;2023-08-31T18:08:32;99060.91;;;15.48;78.98
65280;BME280;51878;55.748;48.742;2023-08-31T18:13:36;99061.28;;;15.52;78.20
65280;BME280;51878;55.748;48.742;2023-08-31T18:18:38;99058.63;;;15.45;79.50
65280;BME280;51878;55.748;48.742;2023-08-31T18:23:40;99057.25;;;15.36;80.82
65280;BME280;51878;55.748;48.742;2023-08-31T18:28:43;99058.19;;;15.30;81.45
65280;BME280;51878;55.748;48.742;2023-08-31T18:33:45;99071.38;;;15.33;83.72
65280;BME280;51878;55.748;48.742;2023-08-31T18:38:47;99048.00;;;15.19;85.55
65280;BME280;51878;55.748;48.742;2023-08-31T18:43:49;99012.56;;;14.94;86.85
65280;BME280;51878;55.748;48.742;2023-08-31T18:48:52;99009.22;;;14.92;86.74
65280;BME280;51878;55.748;48.742;2023-08-31T18:53:54;99015.34;;;14.87;88.50
65280;BME280;51878;55.748;48.742;2023-08-31T18:58:58;99068.31;;;15.04;90.25
65280;BME280;51878;55.748;48.742;2023-08-31T19:04:00;98999.28;;;14.54;88.86
65280;BME280;51878;55.748;48.742;2023-08-31T19:09:04;99066.81;;;14.83;91.38
65280;BME280;51878;55.748;48.742;2023-08-31T19:14:07;99066.44;;;14.80;91.91
65280;BME280;51878;55.748;48.742;2023-08-31T19:19:09;99077.44;;;14.73;93.30
65280;BME280;51878;55.748;48.742;2023-08-31T19:24:11;99076.47;;;14.61;95.33
65280;BME280;51878;55.748;48.742;2023-08-31T19:29:14;99071.09;;;14.47;96.91
65280;BME280;51878;55.748;48.742;2023-08-31T19:34:16;99022.25;;;14.14;97.58
65280;BME280;51878;55.748;48.742;2023-08-31T19:39:19;99056.34;;;14.23;97.92
65280;BME280;51878;55.748;48.742;2023-08-31T19:44:22;98973.09;;;13.57;98.99
65280;BME280;51878;55.748;48.742;2023-08-31T19:49:28;99031.41;;;13.88;100.00
65280;BME280;51878;55.748;48.742;2023-08-31T19:54:30;99091.06;;;14.10;100.00
65280;BME280;51878;55.748;48.742;2023-08-31T19:59:33;99007.75;;;13.43;100.00
65280;BME280;51878;55.748;48.742;2023-08-31T20:05:06;98969.75;;;13.10;100.00
65280;BME280;51878;55.748;48.742;2023-08-31T20:10:57;98996.91;;;13.23;100.00
65280;BME280;51878;55.748;48.742;2023-08-31T20:17:35;99099.59;;;13.75;100.00
65280;BME280;51878;55.748;48.742;2023-08-31T20:23:36;99079.78;;;13.54;100.00
65280;BME280;51878;55.748;48.742;2023-08-31T20:29:59;99094.59;;;13.72;100.00
65280;BME280;51878;55.748;48.742;2023-08-31T20:35:29;99104.44;;;13.73;100.00
65280;BME280;51878;55.748;48.742;2023-08-31T20:40:37;99109.06;;;13.72;100.00
65280;BME280;51878;55.748;48.742;2023-08-31T20:45:43;99052.16;;;13.44;100.00
65280;BME280;51878;55.748;48.742;2023-08-31T20:50:45;99057.41;;;13.39;100.00
65280;BME280;51878;55.748;48.742;2023-08-31T20:55:47;99093.56;;;13.66;100.00
65280;BME280;51878;55.748;48.742;2023-08-31T21:00:50;99082.06;;;13.57;100.00
65280;BME280;51878;55.748;48.742;2023-08-31T21:05:52;99103.63;;;13.66;100.00
65280;BME280;51878;55.748;48.742;2023-08-31T21:10:54;99033.34;;;13.22;100.00
65280;BME280;51878;55.748;48.742;2023-08-31T21:15:57;99098.84;;;13.61;100.00
65280;BME280;51878;55.748;48.742;2023-08-31T21:21:00;99111.38;;;13.62;100.00
65280;BME280;51878;55.748;48.742;2023-08-31T21:26:04;99086.91;;;13.49;100.00
65280;BME280;51878;55.748;48.742;2023-08-31T21:31:08;99055.13;;;13.22;100.00
65280;BME280;51878;55.748;48.742;2023-08-31T21:36:10;99041.78;;;13.08;100.00
65280;BME280;51878;55.748;48.742;2023-08-31T21:41:13;99062.28;;;13.10;100.00
65280;BME280;51878;55.748;48.742;2023-08-31T21:46:15;99069.81;;;13.08;100.00
65280;BME280;51878;55.748;48.742;2023-08-31T21:51:18;99023.00;;;12.73;100.00
65280;BME280;51878;55.748;48.742;2023-08-31T21:56:20;99106.22;;;13.20;100.00
65280;BME280;51878;55.748;48.742;2023-08-31T22:01:22;99065.25;;;12.89;100.00
65280;BME280;51878;55.748;48.742;2023-08-31T22:06:28;99090.16;;;12.99;100.00
65280;BME280;51878;55.748;48.742;2023-08-31T22:11:30;99122.78;;;13.19;100.00
65280;BME280;51878;55.748;48.742;2023-08-31T22:16:32;99121.97;;;13.18;100.00
65280;BME280;51878;55.748;48.742;2023-08-31T22:21:34;98995.41;;;12.36;100.00
65280;BME280;51878;55.748;48.742;2023-08-31T22:26:37;99015.91;;;12.45;100.00
65280;BME280;51878;55.748;48.742;2023-08-31T22:31:39;99088.28;;;12.79;100.00
65280;BME280;51878;55.748;48.742;2023-08-31T22:36:41;99120.72;;;13.01;100.00
65280;BME280;51878;55.748;48.742;2023-08-31T22:41:44;99075.72;;;12.65;100.00
65280;BME280;51878;55.748;48.742;2023-08-31T22:46:48;99128.66;;;12.89;100.00
65280;BME280;51878;55.748;48.742;2023-08-31T22:51:50;99141.63;;;12.80;100.00
65280;BME280;51878;55.748;48.742;2023-08-31T22:56:52;99140.78;;;12.67;100.00
65280;BME280;51878;55.748;48.742;2023-08-31T23:01:55;99108.13;;;12.33;100.00
65280;BME280;51878;55.748;48.742;2023-08-31T23:06:57;99135.97;;;12.42;100.00
65280;BME280;51878;55.748;48.742;2023-08-31T23:12:00;99159.38;;;12.50;100.00
65280;BME280;51878;55.748;48.742;2023-08-31T23:17:02;99137.59;;;12.36;100.00
65280;BME280;51878;55.748;48.742;2023-08-31T23:22:05;99121.88;;;12.18;100.00
65280;BME280;51878;55.748;48.742;2023-08-31T23:27:09;99153.50;;;12.33;100.00
65280;BME280;51878;55.748;48.742;2023-08-31T23:32:11;99163.53;;;12.32;100.00
65280;BME280;51878;55.748;48.742;2023-08-31T23:37:13;99181.31;;;12.35;100.00
65280;BME280;51878;55.748;48.742;2023-08-31T23:42:16;99156.16;;;12.13;100.00
65280;BME280;51878;55.748;48.742;2023-08-31T23:47:19;99140.22;;;11.96;100.00
65280;BME280;51878;55.748;48.742;2023-08-31T23:52:22;99175.38;;;12.11;100.00
65280;BME280;51878;55.748;48.742;2023-08-31T23:57:24;99135.91;;;11.74;100.00
